PIA702 EGCC-OPIS
Flight info
| Callsign | PIA702 |
|---|---|
| Flight time | N/A |
| Altitude | 33000 |
| Route | SONEX L975 DESIG L603 LAMSO/N0472F350 DCT GARLU P717 BKD L619 PODUS Z717 BODLA Q316 OSKUD N858 BOKSU DCT KAZLA DCT ZENIT/K0867F350 M874 ASKIL L736 NEBSU/K0867F370 L736 LODKU M56 GERLI M161 ODIVA Z407 LAPZE/K0874F390 T186 AMDAR/N0475F390 M875 TAPIS L509 LAJAK/N0418F270 G796 HANGU J165 NONIB J143 KALMI |
| Aircraft | B772/H-SDE3FGHIJ3J4J5M1RWXYZ/LB1D1 |
Departure
| Time | 2026-05-04 22:54 |
|---|---|
| Airport | Manchester Airport (EGCC) |
Arrival
| Time | N/A |
|---|---|
| Airport | Islamabad International Airport (OPIS) |
| Time | Latitude | Longitude | Altitude | Speed | Heading |
|---|---|---|---|---|---|
| 2026-05-04 22:19 | 53.36850 | -2.28605 | 237 ft | 0 kts | 316° |
| 2026-05-04 22:37 | 53.36850 | -2.28604 | 237 ft | 0 kts | 316° |
| 2026-05-04 22:38 | 53.36840 | -2.28588 | 237 ft | 2 kts | 316° |
| 2026-05-04 22:38 | 53.36831 | -2.28574 | 237 ft | 0 kts | 316° |
| 2026-05-04 22:39 | 53.36822 | -2.28559 | 237 ft | 2 kts | 305° |
| 2026-05-04 22:39 | 53.36815 | -2.28537 | 237 ft | 2 kts | 288° |
| 2026-05-04 22:39 | 53.36812 | -2.28512 | 238 ft | 2 kts | 273° |
| 2026-05-04 22:39 | 53.36813 | -2.28487 | 238 ft | 2 kts | 257° |
| 2026-05-04 22:40 | 53.36818 | -2.28464 | 238 ft | 2 kts | 242° |
| 2026-05-04 22:40 | 53.36826 | -2.28443 | 238 ft | 1 kts | 227° |
| 2026-05-04 22:40 | 53.36825 | -2.28445 | 238 ft | 2 kts | 227° |
| 2026-05-04 22:40 | 53.36799 | -2.28490 | 238 ft | 5 kts | 225° |
| 2026-05-04 22:41 | 53.36784 | -2.28515 | 238 ft | 0 kts | 225° |
| 2026-05-04 22:44 | 53.36771 | -2.28536 | 237 ft | 6 kts | 225° |
| 2026-05-04 22:44 | 53.36729 | -2.28607 | 237 ft | 9 kts | 225° |
| 2026-05-04 22:44 | 53.36677 | -2.28693 | 236 ft | 11 kts | 225° |
| 2026-05-04 22:44 | 53.36631 | -2.28762 | 236 ft | 8 kts | 206° |
| 2026-05-04 22:45 | 53.36565 | -2.28732 | 236 ft | 13 kts | 140° |
| 2026-05-04 22:45 | 53.36513 | -2.28647 | 237 ft | 0 kts | 134° |
| 2026-05-04 22:45 | 53.36507 | -2.28638 | 237 ft | 1 kts | 134° |
| 2026-05-04 22:46 | 53.36498 | -2.28622 | 237 ft | 3 kts | 134° |
| 2026-05-04 22:46 | 53.36465 | -2.28566 | 238 ft | 9 kts | 134° |
| 2026-05-04 22:46 | 53.36413 | -2.28489 | 238 ft | 9 kts | 157° |
| 2026-05-04 22:46 | 53.36348 | -2.28454 | 239 ft | 11 kts | 148° |
| 2026-05-04 22:47 | 53.36277 | -2.28346 | 240 ft | 15 kts | 134° |
| 2026-05-04 22:47 | 53.36199 | -2.28211 | 241 ft | 15 kts | 134° |
| 2026-05-04 22:47 | 53.36122 | -2.28080 | 242 ft | 15 kts | 135° |
| 2026-05-04 22:47 | 53.36044 | -2.27964 | 243 ft | 14 kts | 140° |
| 2026-05-04 22:48 | 53.35960 | -2.27865 | 244 ft | 14 kts | 158° |
| 2026-05-04 22:48 | 53.35885 | -2.27844 | 244 ft | 8 kts | 161° |
| 2026-05-04 22:48 | 53.35837 | -2.27772 | 245 ft | 10 kts | 132° |
| 2026-05-04 22:48 | 53.35780 | -2.27674 | 247 ft | 10 kts | 144° |
| 2026-05-04 22:49 | 53.35726 | -2.27629 | 247 ft | 7 kts | 158° |
| 2026-05-04 22:49 | 53.35693 | -2.27604 | 248 ft | 3 kts | 152° |
| 2026-05-04 22:49 | 53.35672 | -2.27583 | 248 ft | 4 kts | 147° |
| 2026-05-04 22:49 | 53.35631 | -2.27529 | 250 ft | 10 kts | 130° |
| 2026-05-04 22:50 | 53.35638 | -2.27422 | 252 ft | 9 kts | 55° |
| 2026-05-04 22:50 | 53.35684 | -2.27327 | 254 ft | 12 kts | 50° |
| 2026-05-04 22:50 | 53.35746 | -2.27201 | 255 ft | 16 kts | 50° |
| 2026-05-04 22:50 | 53.35816 | -2.27045 | 258 ft | 16 kts | 60° |
| 2026-05-04 22:51 | 53.35873 | -2.26897 | 261 ft | 14 kts | 53° |
| 2026-05-04 22:51 | 53.35935 | -2.26752 | 262 ft | 16 kts | 53° |
| 2026-05-04 22:51 | 53.36015 | -2.26584 | 263 ft | 20 kts | 51° |
| 2026-05-04 22:51 | 53.36095 | -2.26415 | 263 ft | 20 kts | 52° |
| 2026-05-04 22:52 | 53.36182 | -2.26255 | 263 ft | 17 kts | 38° |
| 2026-05-04 22:52 | 53.36259 | -2.26120 | 263 ft | 11 kts | 57° |
| 2026-05-04 22:52 | 53.36270 | -2.25983 | 263 ft | 12 kts | 77° |
| 2026-05-04 22:52 | 53.36279 | -2.25821 | 263 ft | 15 kts | 113° |
| 2026-05-04 22:53 | 53.36230 | -2.25747 | 263 ft | 8 kts | 175° |
| 2026-05-04 22:53 | 53.36187 | -2.25811 | 263 ft | 14 kts | 231° |
| 2026-05-04 22:53 | 53.36035 | -2.26129 | 264 ft | 64 kts | 231° |
| 2026-05-04 22:53 | 53.35623 | -2.26979 | 260 ft | 123 kts | 231° |
| 2026-05-04 22:54 | 53.34975 | -2.28321 | 243 ft | 170 kts | 231° |
| 2026-05-04 22:54 | 53.34215 | -2.29879 | 626 ft | 176 kts | 233° |
| 2026-05-04 22:54 | 53.33428 | -2.31522 | 1148 ft | 184 kts | 234° |
| 2026-05-04 22:54 | 53.32610 | -2.33232 | 1518 ft | 193 kts | 236° |
| 2026-05-04 22:55 | 53.32002 | -2.35271 | 1568 ft | 207 kts | 262° |
| 2026-05-04 22:55 | 53.32035 | -2.37756 | 1591 ft | 224 kts | 289° |
| 2026-05-04 22:55 | 53.32843 | -2.39993 | 1936 ft | 227 kts | 320° |
| 2026-05-04 22:55 | 53.34214 | -2.41249 | 2412 ft | 227 kts | 347° |
| 2026-05-04 22:56 | 53.35771 | -2.41682 | 2832 ft | 230 kts | 349° |
| 2026-05-04 22:56 | 53.37337 | -2.42322 | 3285 ft | 231 kts | 344° |
| 2026-05-04 22:56 | 53.38878 | -2.43120 | 3703 ft | 234 kts | 342° |
| 2026-05-04 22:56 | 53.40435 | -2.43966 | 4167 ft | 235 kts | 342° |
| 2026-05-04 22:57 | 53.41948 | -2.44789 | 4569 ft | 237 kts | 342° |
| 2026-05-04 22:57 | 53.43548 | -2.45602 | 4989 ft | 239 kts | 351° |
| 2026-05-04 22:57 | 53.45180 | -2.45438 | 5370 ft | 244 kts | 24° |
| 2026-05-04 22:57 | 53.46422 | -2.43530 | 5579 ft | 255 kts | 63° |
| 2026-05-04 22:58 | 53.46985 | -2.40727 | 6037 ft | 255 kts | 74° |
| 2026-05-04 22:58 | 53.47416 | -2.37854 | 6466 ft | 256 kts | 76° |
| 2026-05-04 22:58 | 53.47801 | -2.34856 | 6602 ft | 271 kts | 77° |
| 2026-05-04 22:58 | 53.48166 | -2.31772 | 6864 ft | 278 kts | 78° |
| 2026-05-04 22:59 | 53.48530 | -2.28589 | 7284 ft | 280 kts | 81° |
| 2026-05-04 22:59 | 53.48486 | -2.25331 | 7662 ft | 284 kts | 98° |
| 2026-05-04 22:59 | 53.48143 | -2.22095 | 8045 ft | 286 kts | 100° |
| 2026-05-04 22:59 | 53.47772 | -2.18835 | 8458 ft | 288 kts | 100° |
| 2026-05-04 23:00 | 53.47392 | -2.15510 | 8835 ft | 290 kts | 100° |
| 2026-05-04 23:00 | 53.47012 | -2.12188 | 9229 ft | 292 kts | 100° |
| 2026-05-04 23:00 | 53.46629 | -2.08834 | 9604 ft | 294 kts | 100° |
| 2026-05-04 23:00 | 53.46240 | -2.05443 | 9962 ft | 297 kts | 100° |
| 2026-05-04 23:01 | 53.45849 | -2.02033 | 10352 ft | 298 kts | 100° |
| 2026-05-04 23:01 | 53.45461 | -1.98622 | 10736 ft | 300 kts | 100° |
| 2026-05-04 23:01 | 53.45062 | -1.95148 | 11126 ft | 303 kts | 101° |
| 2026-05-04 23:01 | 53.44629 | -1.91607 | 11186 ft | 319 kts | 101° |
| 2026-05-04 23:02 | 53.44171 | -1.87892 | 11218 ft | 334 kts | 101° |
| 2026-05-04 23:02 | 53.43699 | -1.84082 | 11263 ft | 349 kts | 101° |
| 2026-05-04 23:02 | 53.43198 | -1.80049 | 11311 ft | 364 kts | 102° |
| 2026-05-04 23:02 | 53.42675 | -1.75851 | 11355 ft | 378 kts | 102° |
| 2026-05-04 23:03 | 53.42128 | -1.71466 | 11625 ft | 385 kts | 102° |
| 2026-05-04 23:03 | 53.41587 | -1.67146 | 12062 ft | 387 kts | 102° |
| 2026-05-04 23:03 | 53.41042 | -1.62805 | 12525 ft | 389 kts | 102° |
| 2026-05-04 23:03 | 53.40480 | -1.58348 | 12960 ft | 393 kts | 102° |
| 2026-05-04 23:04 | 53.39929 | -1.53983 | 13442 ft | 395 kts | 102° |
| 2026-05-04 23:04 | 53.39360 | -1.49498 | 13940 ft | 398 kts | 102° |
| 2026-05-04 23:04 | 53.38791 | -1.45021 | 14425 ft | 402 kts | 102° |
| 2026-05-04 23:04 | 53.38209 | -1.40464 | 14967 ft | 405 kts | 102° |
| 2026-05-04 23:05 | 53.37635 | -1.35983 | 15486 ft | 408 kts | 102° |
| 2026-05-04 23:05 | 53.37087 | -1.31710 | 16019 ft | 410 kts | 103° |
| 2026-05-04 23:05 | 53.36806 | -1.29534 | 16289 ft | 411 kts | 103° |
| 2026-05-04 23:05 | 53.36201 | -1.24846 | 16800 ft | 414 kts | 103° |
| 2026-05-04 23:06 | 53.35589 | -1.20110 | 17283 ft | 418 kts | 103° |
| 2026-05-04 23:06 | 53.35392 | -1.18600 | 17455 ft | 419 kts | 103° |
| 2026-05-04 23:07 | 53.35117 | -1.16474 | 17704 ft | 420 kts | 103° |